Strona główna
METAR-TAF:

METAR-TAF

Lotnisko :

Agen, Francja

Szerokość geograficzna: 44-11N, Długość geograficzna: 000-36E, wysokość: 61 m

Aktualna obserwacja pogody

Raport powstał 33 minut temu, godzina 18:00 UTC
Wiatr 2 kt z kierunków zmiennych
Temperatura 30°C
Wilgotność 43%
Ciśnienie 1008 hPa
Widzialność 10 km lub więcej
Brak chmur poniżej 1500 m i brak chmur cumulonimbus

METAR: LFBA 251800Z AUTO VRB02KT CAVOK 30/16 Q1008 NOSIG

czas: 20:33 (18:33 UTC)

Prognoza

Raport powstał 4 godziny i 33 minut temu, godzina 14:00 UTC
Prognoza ważna od 25 godzina 15 UTC do 25 godzina 24 UTC
Wiatr 4 kt od wschód
Widzialność 10 km lub więcej
Brak chmur poniżej 1500 m i brak chmur cumulonimbus

TAF: LFBA 251400Z 2515/2524 08004KT CAVOK

Obserwacja i prognoza pogody dla ponad 4000 lotnisk (raport METAR i TAF).

Dostępne stacje oznaczono żółtymi i czerwonymi punktami na mapie.

Najedź kursorem aby zobaczyć nazwę stacji.

Kliknij aby zobaczyć obserwacje i prognozy pogody.

Aby zmienić mapę: kliknij na zielony przycisk z czarnym krzyżykiem, aby powiększyć; na zielony przycisk z myślnikiem, aby pomniejszyć; na zielone strzałki, aby przejść do map sąsiednich.


METAR-TAF: